createdAt,value
2023-04-10T00:01:07.864Z,35.07
2023-04-10T00:03:34.583Z,35.43
2023-04-10T00:06:01.370Z,29.60
2023-04-10T00:08:27.995Z,40.43
2023-04-10T00:10:54.732Z,40.37
2023-04-10T00:13:21.374Z,38.47
2023-04-10T00:15:48.532Z,35.87
2023-04-10T00:18:15.396Z,38.50
2023-04-10T00:20:42.656Z,38.10
2023-04-10T00:23:09.674Z,39.10
2023-04-10T00:25:36.294Z,35.87
2023-04-10T00:28:02.903Z,37.13
2023-04-10T00:30:29.534Z,38.50
2023-04-10T00:32:56.191Z,41.50
2023-04-10T00:35:22.828Z,36.33
2023-04-10T00:37:50.941Z,33.70
2023-04-10T00:40:17.559Z,40.27
2023-04-10T00:42:44.171Z,33.93
2023-04-10T00:45:11.541Z,41.13
2023-04-10T00:47:38.341Z,35.27
2023-04-10T00:50:06.373Z,38.00
2023-04-10T00:52:33.318Z,37.77
2023-04-10T00:55:00.071Z,38.03
2023-04-10T00:57:27.500Z,41.50
2023-04-10T00:59:54.460Z,35.10
2023-04-10T01:06:16.515Z,40.80
2023-04-10T01:09:04.757Z,44.43
2023-04-10T01:11:48.139Z,39.37
2023-04-10T01:14:37.930Z,40.07
2023-04-10T01:17:08.560Z,36.63
2023-04-10T01:20:16.709Z,39.50
2023-04-10T01:23:12.342Z,31.60
2023-04-10T01:25:51.075Z,37.87
2023-04-10T01:28:35.990Z,37.63
2023-04-10T01:31:03.442Z,34.00
2023-04-10T01:33:45.497Z,33.53
2023-04-10T01:36:13.093Z,33.93
2023-04-10T01:38:44.120Z,37.83
2023-04-10T01:41:10.730Z,43.43
2023-04-10T01:43:40.419Z,35.43
2023-04-10T01:46:07.456Z,45.40
2023-04-10T01:48:34.375Z,33.67
2023-04-10T01:51:06.958Z,36.13
2023-04-10T01:53:35.714Z,36.07
2023-04-10T01:56:03.223Z,42.10
2023-04-10T01:58:30.560Z,43.80
2023-04-10T02:00:57.173Z,34.87
2023-04-10T02:03:24.040Z,30.60
2023-04-10T02:06:17.824Z,42.13
2023-04-10T02:08:53.750Z,50.00
2023-04-10T02:11:26.408Z,38.20
2023-04-10T02:13:54.008Z,36.47
2023-04-10T02:16:22.714Z,32.00
2023-04-10T02:18:50.580Z,36.97
2023-04-10T02:21:17.405Z,34.30
2023-04-10T02:23:44.233Z,36.77
2023-04-10T02:26:10.926Z,37.40
2023-04-10T02:28:40.657Z,31.93
2023-04-10T02:31:07.749Z,33.00
2023-04-10T02:33:34.399Z,41.37
2023-04-10T02:36:01.716Z,34.60
2023-04-10T02:38:28.346Z,35.13
2023-04-10T02:40:54.979Z,39.63
2023-04-10T02:43:21.612Z,37.40
2023-04-10T02:45:48.272Z,42.10
2023-04-10T02:48:15.008Z,40.37
2023-04-10T02:50:46.045Z,35.17
2023-04-10T02:53:15.564Z,33.97
2023-04-10T02:55:42.620Z,44.13
2023-04-10T02:58:09.674Z,39.27
2023-04-10T03:00:36.346Z,39.13
2023-04-10T03:03:03.169Z,37.87
2023-04-10T03:05:30.294Z,36.33
2023-04-10T03:07:56.930Z,33.20
2023-04-10T03:10:24.733Z,38.07
2023-04-10T03:12:51.378Z,37.07
2023-04-10T03:15:18.263Z,37.03
2023-04-10T03:17:44.971Z,38.73
2023-04-10T03:20:12.096Z,36.67
2023-04-10T03:22:39.643Z,39.60
2023-04-10T03:25:06.767Z,36.57
2023-04-10T03:27:34.869Z,50.90
2023-04-10T03:30:02.690Z,37.33
2023-04-10T03:32:31.162Z,40.80
2023-04-10T03:34:59.144Z,35.87
2023-04-10T03:37:27.550Z,34.03
2023-04-10T03:39:54.201Z,33.13
2023-04-10T03:42:20.797Z,41.07
2023-04-10T03:44:47.453Z,33.80
2023-04-10T03:47:14.109Z,44.00
2023-04-10T03:49:40.747Z,43.83
2023-04-10T03:52:07.414Z,40.17
2023-04-10T03:54:34.038Z,34.20
2023-04-10T03:57:01.543Z,33.83
2023-04-10T03:59:37.926Z,35.87
2023-04-10T04:02:06.995Z,40.40
2023-04-10T04:04:33.755Z,33.30
2023-04-10T04:07:00.575Z,33.03
2023-04-10T04:09:27.228Z,38.30
2023-04-10T04:11:53.850Z,34.37
2023-04-10T04:14:20.556Z,36.20
2023-04-10T04:16:47.371Z,41.27
2023-04-10T04:19:14.089Z,33.50
2023-04-10T04:21:40.674Z,40.17
2023-04-10T04:24:07.388Z,40.87
2023-04-10T04:26:34.150Z,35.63
2023-04-10T04:29:00.760Z,35.17
2023-04-10T04:31:32.412Z,36.97
2023-04-10T04:34:00.009Z,45.40
2023-04-10T04:36:27.747Z,40.87
2023-04-10T04:38:54.954Z,37.70
2023-04-10T04:41:22.072Z,39.37
2023-04-10T04:43:49.456Z,34.30
2023-04-10T04:46:16.155Z,38.20
2023-04-10T04:48:42.816Z,38.30
2023-04-10T04:51:09.458Z,48.10
2023-04-10T04:53:36.856Z,37.80
2023-04-10T04:56:03.691Z,43.40
2023-04-10T04:58:30.359Z,35.10
2023-04-10T05:00:57.026Z,34.80
2023-04-10T05:03:23.907Z,38.27
2023-04-10T05:05:50.705Z,42.10
2023-04-10T05:08:17.445Z,38.47
2023-04-10T05:10:44.072Z,42.50
2023-04-10T05:13:10.855Z,36.17
2023-04-10T05:15:37.813Z,36.00
2023-04-10T05:18:04.725Z,37.50
2023-04-10T05:20:31.504Z,34.87
2023-04-10T05:22:58.214Z,37.13
2023-04-10T05:25:24.920Z,38.93
2023-04-10T05:27:51.523Z,37.40
2023-04-10T05:30:18.216Z,40.30
2023-04-10T05:32:46.145Z,41.20
2023-04-10T05:35:12.886Z,39.47
2023-04-10T05:37:39.475Z,43.47
2023-04-10T05:40:07.303Z,39.50
2023-04-10T05:42:33.899Z,40.10
2023-04-10T05:45:00.513Z,34.97
2023-04-10T05:47:27.210Z,32.67
2023-04-10T05:49:53.958Z,39.23
2023-04-10T05:52:20.677Z,39.50
2023-04-10T05:54:47.329Z,39.13
2023-04-10T05:57:14.055Z,28.67
2023-04-10T05:59:41.061Z,39.73
2023-04-10T06:02:07.773Z,35.03
2023-04-10T06:04:34.672Z,37.80
2023-04-10T06:07:01.637Z,36.03
2023-04-10T06:09:28.306Z,39.77
2023-04-10T06:11:54.924Z,34.60
2023-04-10T06:14:21.518Z,33.17
2023-04-10T06:16:48.148Z,32.83
2023-04-10T06:19:14.796Z,32.17
2023-04-10T06:21:41.378Z,28.80
2023-04-10T06:24:07.991Z,46.00
2023-04-10T06:26:34.656Z,38.00
2023-04-10T06:29:01.318Z,39.47
2023-04-10T06:31:28.126Z,38.07
2023-04-10T06:33:55.655Z,46.07
2023-04-10T06:36:22.441Z,31.87
2023-04-10T06:38:49.018Z,36.47
2023-04-10T06:41:15.756Z,35.27
2023-04-10T06:43:42.358Z,39.60
2023-04-10T06:46:08.988Z,38.20
2023-04-10T06:48:35.714Z,36.00
2023-04-10T06:51:02.594Z,36.60
2023-04-10T06:53:29.556Z,35.27
2023-04-10T06:55:56.933Z,38.13
2023-04-10T06:58:24.480Z,33.63
2023-04-10T07:00:51.169Z,40.10
2023-04-10T07:03:18.057Z,42.20
2023-04-10T07:05:44.704Z,47.60
2023-04-10T07:08:11.452Z,39.70
2023-04-10T07:10:38.135Z,36.83
2023-04-10T07:13:04.746Z,40.23
2023-04-10T07:15:31.495Z,37.47
2023-04-10T07:17:58.206Z,34.13
2023-04-10T07:20:24.982Z,34.43
2023-04-10T07:22:51.642Z,38.43
2023-04-10T07:25:18.469Z,41.80
2023-04-10T07:27:45.143Z,38.80
2023-04-10T07:30:13.577Z,36.23
2023-04-10T07:32:42.128Z,36.40
2023-04-10T07:35:09.440Z,34.63
2023-04-10T07:37:36.164Z,40.10
2023-04-10T07:40:03.252Z,37.93
2023-04-10T07:42:30.368Z,36.50
2023-04-10T07:44:57.355Z,34.57
2023-04-10T07:47:24.422Z,35.60
2023-04-10T07:49:51.174Z,34.43
2023-04-10T07:52:17.870Z,34.70
2023-04-10T07:54:44.613Z,30.97
2023-04-10T07:57:11.251Z,34.43
2023-04-10T07:59:37.841Z,35.47
2023-04-10T08:02:04.636Z,34.00
2023-04-10T08:04:31.763Z,33.40
2023-04-10T08:06:58.601Z,34.97
2023-04-10T08:09:25.325Z,33.00
2023-04-10T08:11:51.979Z,34.83
2023-04-10T08:14:18.783Z,34.50
2023-04-10T08:16:45.630Z,31.17
2023-04-10T08:19:12.445Z,32.20
2023-04-10T08:21:39.066Z,30.60
2023-04-10T08:24:05.847Z,31.30
2023-04-10T08:26:32.520Z,34.23
2023-04-10T08:29:00.669Z,33.93
2023-04-10T08:31:28.857Z,27.47
2023-04-10T08:33:56.780Z,37.97
2023-04-10T08:36:23.941Z,45.23
2023-04-10T08:38:50.616Z,31.60
2023-04-10T08:41:19.009Z,40.83
2023-04-10T08:43:46.243Z,36.57
2023-04-10T08:46:14.396Z,39.43
2023-04-10T08:49:03.395Z,32.90
2023-04-10T08:51:41.425Z,35.37
2023-04-10T08:54:14.192Z,33.77
2023-04-10T08:56:46.906Z,31.33
2023-04-10T08:59:13.720Z,34.07
2023-04-10T09:01:41.013Z,33.70
2023-04-10T09:04:07.991Z,32.90
2023-04-10T09:06:34.750Z,36.93
2023-04-10T09:12:01.074Z,34.20
2023-04-10T09:14:34.915Z,24.60
2023-04-10T09:17:22.590Z,30.57
2023-04-10T09:19:55.124Z,25.00
2023-04-10T09:22:32.916Z,47.23
2023-04-10T09:25:00.616Z,36.33
2023-04-10T09:27:38.607Z,32.70
2023-04-10T09:30:07.216Z,22.93
2023-04-10T09:32:49.273Z,23.50
2023-04-10T09:35:16.107Z,28.60
2023-04-10T09:37:45.830Z,21.27
2023-04-10T09:40:24.384Z,29.10
2023-04-10T09:42:51.502Z,31.27
2023-04-10T09:45:20.405Z,19.00
2023-04-10T09:48:08.163Z,24.03
2023-04-10T09:50:40.653Z,21.83
2023-04-10T09:53:08.896Z,19.17
2023-04-10T09:55:36.967Z,20.03
2023-04-10T09:58:05.513Z,19.57
2023-04-10T10:00:38.685Z,18.13
2023-04-10T10:03:09.261Z,25.20
2023-04-10T10:05:39.230Z,24.93
2023-04-10T10:08:06.774Z,17.27
2023-04-10T10:10:33.698Z,14.63
2023-04-10T10:13:02.574Z,15.83
2023-04-10T10:15:47.960Z,14.90
2023-04-10T10:18:43.888Z,15.03
2023-04-10T10:21:11.017Z,17.63
2023-04-10T10:23:38.432Z,16.37
2023-04-10T10:26:06.675Z,23.90
2023-04-10T10:28:34.703Z,19.13
2023-04-10T10:31:03.417Z,22.40
2023-04-10T10:33:30.810Z,13.53
2023-04-10T10:36:00.908Z,12.47
2023-04-10T10:38:28.248Z,11.93
2023-04-10T10:41:21.371Z,12.87
2023-04-10T10:44:00.329Z,12.17
2023-04-10T10:46:39.727Z,12.17
2023-04-10T10:49:06.351Z,10.47
2023-04-10T10:51:50.574Z,13.10
2023-04-10T10:54:32.925Z,12.00
2023-04-10T10:57:00.628Z,11.13
2023-04-10T10:59:45.908Z,13.37
2023-04-10T11:02:16.775Z,13.60
2023-04-10T11:04:45.784Z,10.90
2023-04-10T11:07:13.457Z,13.10
2023-04-10T11:09:54.398Z,9.87
2023-04-10T11:12:24.322Z,11.47
2023-04-10T11:15:01.972Z,15.60
2023-04-10T11:17:52.032Z,9.57
2023-04-10T11:20:21.954Z,11.20
2023-04-10T11:23:12.088Z,13.63
2023-04-10T11:25:55.718Z,9.37
2023-04-10T11:28:39.535Z,13.40
2023-04-10T11:31:19.957Z,10.97
2023-04-10T11:34:13.094Z,17.40
2023-04-10T11:36:42.560Z,7.23
2023-04-10T11:39:13.191Z,14.13
2023-04-10T11:41:44.848Z,8.70
2023-04-10T11:44:13.660Z,7.87
2023-04-10T11:46:48.281Z,10.20
2023-04-10T11:49:23.343Z,7.10
2023-04-10T11:51:51.307Z,10.50
2023-04-10T11:54:23.400Z,10.10
2023-04-10T11:56:58.799Z,9.10
2023-04-10T11:59:25.960Z,11.37
2023-04-10T12:01:55.850Z,7.43
2023-04-10T12:04:23.868Z,9.63
2023-04-10T12:06:52.795Z,10.43
2023-04-10T12:09:21.260Z,6.00
2023-04-10T12:11:52.052Z,8.40
2023-04-10T12:14:23.016Z,6.70
2023-04-10T12:16:50.548Z,7.23
2023-04-10T12:19:18.006Z,7.63
2023-04-10T12:21:45.787Z,7.70
2023-04-10T12:24:33.721Z,8.23
2023-04-10T12:27:01.457Z,8.10
2023-04-10T12:29:28.200Z,10.70
2023-04-10T12:31:54.869Z,18.57
2023-04-10T12:34:21.486Z,16.90
2023-04-10T12:36:53.876Z,6.97
2023-04-10T12:39:25.006Z,7.63
2023-04-10T12:41:51.929Z,9.07
2023-04-10T12:44:19.258Z,8.17
2023-04-10T12:46:46.112Z,8.00
2023-04-10T12:49:15.062Z,13.43
2023-04-10T12:51:46.395Z,10.00
2023-04-10T12:54:31.128Z,8.47
2023-04-10T12:56:58.253Z,7.67
2023-04-10T12:59:26.578Z,11.00
2023-04-10T13:01:53.878Z,6.40
2023-04-10T13:04:20.823Z,6.93
2023-04-10T13:06:48.919Z,4.73
2023-04-10T13:09:17.538Z,66.10
2023-04-10T13:11:45.260Z,19.13
2023-04-10T13:14:12.956Z,14.27
2023-04-10T13:16:39.769Z,7.13
2023-04-10T13:19:06.547Z,15.97
2023-04-10T13:21:33.182Z,23.63
2023-04-10T13:23:59.818Z,20.80
2023-04-10T13:26:26.441Z,13.33
2023-04-10T13:28:53.292Z,9.00
2023-04-10T13:31:20.517Z,5.20
2023-04-10T13:33:48.254Z,10.73
2023-04-10T13:36:15.459Z,11.30
2023-04-10T13:38:42.364Z,5.87
2023-04-10T13:41:09.334Z,5.40
2023-04-10T13:43:36.772Z,5.47
2023-04-10T13:46:03.645Z,7.80
2023-04-10T13:48:40.205Z,7.07
2023-04-10T13:51:08.475Z,4.90
2023-04-10T13:53:35.604Z,5.47
2023-04-10T13:56:02.497Z,9.47
2023-04-10T13:58:31.849Z,14.17
2023-04-10T14:00:58.903Z,8.73
2023-04-10T14:03:25.703Z,8.13
2023-04-10T14:05:52.923Z,7.93
2023-04-10T14:08:19.892Z,7.23
2023-04-10T14:10:51.400Z,6.87
2023-04-10T14:13:18.618Z,5.40
2023-04-10T14:15:45.378Z,7.00
2023-04-10T14:18:12.336Z,7.80
2023-04-10T14:20:39.111Z,8.80
2023-04-10T14:23:05.834Z,4.53
2023-04-10T14:25:32.520Z,4.90
2023-04-10T14:27:59.779Z,8.13
2023-04-10T14:30:30.868Z,7.70
2023-04-10T14:32:57.708Z,6.07
2023-04-10T14:35:24.506Z,6.00
2023-04-10T14:37:51.107Z,10.23
2023-04-10T14:40:17.752Z,6.10
2023-04-10T14:42:44.392Z,6.73
2023-04-10T14:45:11.161Z,8.17
2023-04-10T14:47:37.868Z,6.13
2023-04-10T14:50:04.834Z,6.27
2023-04-10T14:52:31.578Z,7.43
2023-04-10T14:54:58.200Z,8.40
2023-04-10T14:57:24.843Z,6.60
2023-04-10T14:59:51.493Z,7.63
2023-04-10T15:02:18.112Z,9.77
2023-04-10T15:04:44.760Z,10.10
2023-04-10T15:07:12.883Z,12.30
2023-04-10T15:09:40.764Z,7.77
2023-04-10T15:12:07.606Z,9.10
2023-04-10T15:14:34.442Z,10.10
2023-04-10T15:17:01.155Z,8.63
2023-04-10T15:19:27.862Z,7.83
2023-04-10T15:21:55.382Z,12.40
2023-04-10T15:24:22.040Z,23.00
2023-04-10T15:26:48.701Z,16.67
2023-04-10T15:29:15.353Z,10.33
2023-04-10T15:31:42.029Z,8.30
2023-04-10T15:34:09.120Z,12.47
2023-04-10T15:36:35.760Z,10.97
2023-04-10T15:39:06.262Z,17.67
2023-04-10T15:41:33.258Z,9.00
2023-04-10T15:44:00.201Z,16.30
2023-04-10T15:46:27.180Z,7.10
2023-04-10T15:48:53.930Z,11.63
2023-04-10T15:51:21.346Z,7.20
2023-04-10T15:53:48.019Z,16.93
2023-04-10T15:56:16.055Z,13.23
2023-04-10T15:58:42.728Z,9.60
2023-04-10T16:01:09.422Z,8.03
2023-04-10T16:03:36.541Z,6.83
2023-04-10T16:06:03.641Z,10.07
2023-04-10T16:08:30.365Z,8.70
2023-04-10T16:10:57.062Z,7.27
2023-04-10T16:13:23.706Z,8.80
2023-04-10T16:15:50.522Z,8.73
2023-04-10T16:18:17.187Z,9.07
2023-04-10T16:20:44.136Z,10.63
2023-04-10T16:23:10.794Z,6.33
2023-04-10T16:25:37.405Z,7.70
2023-04-10T16:28:07.679Z,6.17
2023-04-10T16:30:35.549Z,30.43
2023-04-10T16:33:03.982Z,5.87
2023-04-10T16:35:30.853Z,10.67
2023-04-10T16:37:57.657Z,10.20
2023-04-10T16:40:27.650Z,11.90
2023-04-10T16:42:54.310Z,9.10
2023-04-10T16:45:20.919Z,7.73
2023-04-10T16:47:47.688Z,17.50
2023-04-10T16:50:14.364Z,10.40
2023-04-10T16:52:41.221Z,5.43
2023-04-10T16:55:08.216Z,12.17
2023-04-10T16:57:34.847Z,6.40
2023-04-10T17:00:01.863Z,9.20
2023-04-10T17:02:30.288Z,11.10
2023-04-10T17:04:57.030Z,8.97
2023-04-10T17:07:24.050Z,5.23
2023-04-10T17:09:51.274Z,7.93
2023-04-10T17:12:17.951Z,8.13
2023-04-10T17:14:44.866Z,11.63
2023-04-10T17:17:11.620Z,6.23
2023-04-10T17:19:38.621Z,10.20
2023-04-10T17:22:06.867Z,8.73
2023-04-10T17:24:33.458Z,8.00
2023-04-10T17:27:01.981Z,16.33
2023-04-10T17:29:28.567Z,14.97
2023-04-10T17:31:55.288Z,14.70
2023-04-10T17:34:21.894Z,13.73
2023-04-10T17:36:49.648Z,28.23
2023-04-10T17:39:16.352Z,18.30
2023-04-10T17:41:43.163Z,21.43
2023-04-10T17:44:10.586Z,11.00
2023-04-10T17:46:37.209Z,9.37
2023-04-10T17:49:04.542Z,15.07
2023-04-10T17:51:31.696Z,8.60
2023-04-10T17:53:58.420Z,11.60
2023-04-10T17:56:25.316Z,15.20
2023-04-10T17:58:54.818Z,11.43
2023-04-10T18:01:29.350Z,17.00
2023-04-10T18:04:00.185Z,8.50
2023-04-10T18:06:27.528Z,10.33
2023-04-10T18:08:55.864Z,12.53
2023-04-10T18:11:23.906Z,15.60
2023-04-10T18:13:50.585Z,16.03
2023-04-10T18:16:20.314Z,11.10
2023-04-10T18:18:47.089Z,11.27
2023-04-10T18:21:13.821Z,10.60
2023-04-10T18:23:40.626Z,10.87
2023-04-10T18:26:07.626Z,10.90
2023-04-10T18:28:35.907Z,10.87
2023-04-10T18:31:02.683Z,9.93
2023-04-10T18:33:29.415Z,20.13
2023-04-10T18:35:59.587Z,12.57
2023-04-10T18:38:26.899Z,10.17
2023-04-10T18:40:59.715Z,10.00
2023-04-10T18:43:29.741Z,11.20
2023-04-10T18:45:56.968Z,16.13
2023-04-10T18:48:23.730Z,13.53
2023-04-10T18:50:53.316Z,16.33
2023-04-10T18:53:21.233Z,13.90
2023-04-10T18:55:51.942Z,11.27
2023-04-10T18:58:22.577Z,13.03
2023-04-10T19:00:49.596Z,12.30
2023-04-10T19:03:16.617Z,10.90
2023-04-10T19:05:43.642Z,9.90
2023-04-10T19:08:14.160Z,14.67
2023-04-10T19:10:42.115Z,10.10
2023-04-10T19:13:11.553Z,40.70
2023-04-10T19:15:42.440Z,26.30
2023-04-10T19:18:09.292Z,16.20
2023-04-10T19:20:52.451Z,10.87
2023-04-10T19:23:21.153Z,14.60
2023-04-10T19:25:54.947Z,14.97
2023-04-10T19:28:23.647Z,12.40
2023-04-10T19:30:50.488Z,14.50
2023-04-10T19:33:17.411Z,21.37
2023-04-10T19:35:44.242Z,15.23
2023-04-10T19:38:11.063Z,15.73
2023-04-10T19:40:37.778Z,13.07
2023-04-10T19:43:04.392Z,18.23
2023-04-10T19:45:32.907Z,12.43
2023-04-10T19:48:00.157Z,9.50
2023-04-10T19:50:29.474Z,18.00
2023-04-10T19:52:56.527Z,11.60
2023-04-10T19:55:23.470Z,15.13
2023-04-10T19:57:50.668Z,25.70
2023-04-10T20:00:17.844Z,20.47
2023-04-10T20:02:44.771Z,14.60
2023-04-10T20:05:11.645Z,13.57
2023-04-10T20:07:38.390Z,11.33
2023-04-10T20:10:05.424Z,14.80
2023-04-10T20:12:33.167Z,13.83
2023-04-10T20:15:00.603Z,13.60
2023-04-10T20:17:27.843Z,12.73
2023-04-10T20:19:54.599Z,11.03
2023-04-10T20:22:21.324Z,20.50
2023-04-10T20:24:47.962Z,10.00
2023-04-10T20:27:17.930Z,12.17
2023-04-10T20:29:44.564Z,13.47
2023-04-10T20:32:11.191Z,9.93
2023-04-10T20:34:38.167Z,11.70
2023-04-10T20:37:05.774Z,12.07
2023-04-10T20:39:33.614Z,27.53
2023-04-10T20:42:00.273Z,25.70
2023-04-10T20:44:27.019Z,57.90
2023-04-10T20:46:53.802Z,20.83
2023-04-10T20:49:20.451Z,41.00
2023-04-10T20:51:47.373Z,19.80
2023-04-10T20:54:14.099Z,12.10
2023-04-10T20:56:43.676Z,11.10
2023-04-10T20:59:11.199Z,9.33
2023-04-10T21:01:38.343Z,12.13
2023-04-10T21:04:05.639Z,9.97
2023-04-10T21:06:33.509Z,11.47
2023-04-10T21:09:00.417Z,11.20
2023-04-10T21:11:27.469Z,10.47
2023-04-10T21:13:54.473Z,11.83
2023-04-10T21:16:21.210Z,12.63
2023-04-10T21:18:48.017Z,13.10
2023-04-10T21:21:14.911Z,17.23
2023-04-10T21:23:41.526Z,15.90
2023-04-10T21:26:08.336Z,22.70
2023-04-10T21:28:35.036Z,27.63
2023-04-10T21:31:01.729Z,16.57
2023-04-10T21:33:28.395Z,16.40
2023-04-10T21:35:55.505Z,19.57
2023-04-10T21:38:23.522Z,12.17
2023-04-10T21:40:51.315Z,9.43
2023-04-10T21:43:18.262Z,9.57
2023-04-10T21:45:44.894Z,4.13
2023-04-10T21:48:11.875Z,4.87
2023-04-10T21:50:38.552Z,6.93
2023-04-10T21:53:05.244Z,5.33
2023-04-10T21:55:31.854Z,4.40
2023-04-10T21:57:58.452Z,5.47
2023-04-10T22:00:25.194Z,3.80
2023-04-10T22:02:52.222Z,3.33
2023-04-10T22:05:19.260Z,4.83
2023-04-10T22:07:45.943Z,5.10
2023-04-10T22:10:12.613Z,3.70
2023-04-10T22:12:39.274Z,7.63
2023-04-10T22:15:07.825Z,5.07
2023-04-10T22:17:34.628Z,2.93
2023-04-10T22:20:01.701Z,6.50
2023-04-10T22:22:28.306Z,3.23
2023-04-10T22:24:55.044Z,3.80
2023-04-10T22:27:23.359Z,3.73
2023-04-10T22:30:02.161Z,3.80
2023-04-10T22:32:30.336Z,5.80
2023-04-10T22:34:58.852Z,6.53
2023-04-10T22:37:25.865Z,6.83
2023-04-10T22:39:52.791Z,6.30
2023-04-10T22:42:19.399Z,8.63
2023-04-10T22:44:45.998Z,11.70
2023-04-10T22:47:12.659Z,5.30
2023-04-10T22:49:39.298Z,3.77
2023-04-10T22:52:05.903Z,7.77
2023-04-10T22:54:32.532Z,5.57
2023-04-10T22:56:59.346Z,5.77
2023-04-10T22:59:26.013Z,4.70
2023-04-10T23:01:52.669Z,4.10
2023-04-10T23:04:19.456Z,4.87
2023-04-10T23:06:46.074Z,7.43
2023-04-10T23:09:12.923Z,7.20
2023-04-10T23:11:39.511Z,4.70
2023-04-10T23:14:06.160Z,5.50
2023-04-10T23:16:32.800Z,6.07
2023-04-10T23:18:59.540Z,3.40
2023-04-10T23:21:27.123Z,3.30
2023-04-10T23:23:53.777Z,5.80
2023-04-10T23:26:20.768Z,5.40
2023-04-10T23:28:47.611Z,5.00
2023-04-10T23:31:14.542Z,4.00
2023-04-10T23:33:41.322Z,6.00
2023-04-10T23:36:08.322Z,7.60
2023-04-10T23:38:35.100Z,5.37
2023-04-10T23:41:02.910Z,4.00
2023-04-10T23:43:29.553Z,4.17
2023-04-10T23:45:56.242Z,4.80
2023-04-10T23:48:22.958Z,4.80
2023-04-10T23:50:49.573Z,5.40
2023-04-10T23:53:16.242Z,2.40
2023-04-10T23:55:43.191Z,5.23
2023-04-10T23:58:10.061Z,3.07
